Time;durP1;ratioP1;P1;durP2;ratioP2;P2;SDS_P1;SDS_P2;PMS_P1;PMS_P2;Temp;Humidity;BMP_temperature;BMP_pressure;BME280_temperature;BME280_humidity;BME280_pressure;Samples;Min_cycle;Max_cycle;Signal;HPM_P1;HPM_P2
2021/12/17 00:00:23;;;;;;;21.23;8.07;;;5.50;99.90;;;;;;5018418;28;20577;-50
2021/12/17 00:03:11;;;;;;;22.03;8.83;;;5.50;99.90;;;;;;5030065;28;20591;-51
2021/12/17 00:06:12;;;;;;;24.57;8.40;;;5.50;99.90;;;;;;5021368;28;20467;-51
2021/12/17 00:08:39;;;;;;;19.17;8.97;;;5.50;99.90;;;;;;5022822;28;20458;-51
2021/12/17 00:11:06;;;;;;;19.70;9.60;;;5.50;99.90;;;;;;5029454;28;20550;-52
2021/12/17 00:13:35;;;;;;;22.33;8.33;;;5.50;99.90;;;;;;5032345;28;20861;-52
2021/12/17 00:16:11;;;;;;;20.17;8.40;;;5.50;99.90;;;;;;5029539;28;20550;-51
2021/12/17 00:18:51;;;;;;;19.43;8.80;;;5.50;99.90;;;;;;5031295;28;20482;-51
2021/12/17 00:48:43;;;;;;;28.63;9.67;;;5.40;99.90;;;;;;5027794;28;20970;-52
2021/12/17 00:51:49;;;;;;;20.80;9.17;;;5.40;99.90;;;;;;5030860;28;20553;-52
2021/12/17 00:54:21;;;;;;;22.03;9.30;;;5.40;99.90;;;;;;5031120;28;20474;-51
2021/12/17 00:56:49;;;;;;;24.50;9.50;;;5.40;99.90;;;;;;5028778;28;20550;-51
2021/12/17 00:59:16;;;;;;;21.30;7.90;;;5.30;99.90;;;;;;5029921;28;20612;-51
2021/12/17 01:01:46;;;;;;;26.13;8.07;;;5.30;99.90;;;;;;5033611;28;21042;-51
2021/12/17 01:04:13;;;;;;;20.73;9.40;;;5.30;99.90;;;;;;5032444;28;20569;-52
2021/12/17 01:06:40;;;;;;;28.90;8.33;;;5.40;99.90;;;;;;5030138;28;20470;-52
2021/12/17 01:09:12;;;;;;;16.63;8.40;;;5.30;99.90;;;;;;5033382;28;20474;-51
2021/12/17 01:11:39;;;;;;;24.63;8.87;;;5.30;99.90;;;;;;5030510;28;20517;-51
2021/12/17 01:14:06;;;;;;;27.80;10.13;;;5.30;99.90;;;;;;5040442;28;20585;-51
2021/12/17 01:16:33;;;;;;;22.37;8.60;;;5.30;99.90;;;;;;5029449;28;20576;-52
2021/12/17 01:19:10;;;;;;;14.93;8.90;;;5.40;99.90;;;;;;5037817;28;20477;-51
2021/12/17 01:21:54;;;;;;;23.13;10.40;;;5.30;99.90;;;;;;5026764;28;20462;-52
2021/12/17 01:24:43;;;;;;;19.27;9.20;;;5.30;99.90;;;;;;5025694;28;20490;-51
2021/12/17 01:35:30;;;;;;;31.87;9.33;;;5.30;99.90;;;;;;5030907;28;20462;-51
2021/12/17 01:39:00;;;;;;;15.43;8.60;;;5.30;99.90;;;;;;5037293;28;20505;-51
2021/12/17 01:41:15;;;;;;;20.13;9.57;;;5.40;99.90;;;;;;5031094;28;20485;-52
2021/12/17 01:43:48;;;;;;;22.90;8.93;;;5.30;99.90;;;;;;5025710;28;20490;-52
2021/12/17 01:46:19;;;;;;;16.57;7.80;;;5.40;99.90;;;;;;5026095;28;20459;-52
2021/12/17 01:48:57;;;;;;;22.40;8.33;;;5.40;99.90;;;;;;5026666;28;20999;-51
2021/12/17 01:57:00;;;;;;;15.67;7.00;;;5.40;99.90;;;;;;5025523;28;20495;-51
2021/12/17 01:59:35;;;;;;;18.40;7.13;;;5.30;99.90;;;;;;5029650;28;20569;-52
2021/12/17 02:02:06;;;;;;;22.50;7.83;;;5.30;99.90;;;;;;5025876;28;20557;-52
2021/12/17 02:04:34;;;;;;;19.37;7.40;;;5.30;99.90;;;;;;5029485;28;20486;-51
2021/12/17 02:07:03;;;;;;;24.60;7.73;;;5.30;99.90;;;;;;5025981;28;20462;-52
2021/12/17 02:10:17;;;;;;;24.80;8.40;;;5.30;99.90;;;;;;5027047;28;20541;-51
2021/12/17 02:12:58;;;;;;;16.17;6.53;;;5.20;99.90;;;;;;5023285;28;20807;-51
2021/12/17 02:21:30;;;;;;;18.73;8.23;;;5.20;99.90;;;;;;5028045;28;20876;-53
2021/12/17 02:29:56;;;;;;;29.23;8.30;;;5.10;99.90;;;;;;5027428;28;20497;-54
2021/12/17 02:32:25;;;;;;;18.70;7.60;;;5.10;99.90;;;;;;5028360;28;20997;-54
2021/12/17 02:35:08;;;;;;;20.77;8.30;;;5.10;99.90;;;;;;5029111;28;20509;-53
2021/12/17 02:37:36;;;;;;;15.77;6.87;;;5.10;99.90;;;;;;5027201;28;20540;-55
2021/12/17 02:40:17;;;;;;;24.13;7.93;;;5.20;99.90;;;;;;5024716;28;20540;-54
2021/12/17 02:45:34;;;;;;;18.23;7.20;;;5.20;99.90;;;;;;5031140;28;20536;-55
2021/12/17 02:48:03;;;;;;;19.13;6.93;;;5.20;99.90;;;;;;5041145;28;20534;-54
2021/12/17 02:50:31;;;;;;;15.83;7.10;;;5.20;99.90;;;;;;5039038;28;20499;-54
2021/12/17 02:53:01;;;;;;;27.17;7.60;;;5.20;99.90;;;;;;5034598;28;20494;-58
2021/12/17 02:55:30;;;;;;;20.73;8.33;;;5.10;99.90;;;;;;5026465;28;20458;-54
2021/12/17 02:57:58;;;;;;;14.60;6.50;;;5.10;99.90;;;;;;5028216;28;20494;-54
2021/12/17 03:00:26;;;;;;;21.23;7.10;;;5.10;99.90;;;;;;5027786;28;20464;-54
2021/12/17 03:02:55;;;;;;;26.37;7.50;;;5.10;99.90;;;;;;5025725;28;20494;-54
2021/12/17 03:05:23;;;;;;;19.33;7.67;;;5.10;99.90;;;;;;5023267;28;20555;-54
2021/12/17 03:07:50;;;;;;;15.17;6.07;;;5.10;99.90;;;;;;5028299;28;20487;-54
2021/12/17 03:10:18;;;;;;;21.17;7.40;;;5.20;99.90;;;;;;5028822;28;20561;-54
2021/12/17 03:12:47;;;;;;;14.97;6.67;;;5.20;99.90;;;;;;5021639;28;20516;-53
2021/12/17 03:15:22;;;;;;;19.23;7.77;;;5.10;99.90;;;;;;5027352;28;20494;-58
2021/12/17 03:18:22;;;;;;;18.63;7.40;;;5.20;99.90;;;;;;5027382;28;20458;-57
2021/12/17 03:23:39;;;;;;;15.13;6.37;;;5.10;99.90;;;;;;5037562;28;20635;-57
2021/12/17 03:26:09;;;;;;;20.17;6.97;;;5.10;99.90;;;;;;5041338;28;20462;-57
2021/12/17 03:28:36;;;;;;;17.77;8.10;;;5.10;99.90;;;;;;5033150;28;20629;-56
2021/12/17 03:31:04;;;;;;;18.23;6.10;;;5.00;99.90;;;;;;5033496;28;21020;-57
2021/12/17 03:33:31;;;;;;;25.63;7.07;;;5.10;99.90;;;;;;5029367;28;20577;-56
2021/12/17 03:35:58;;;;;;;22.07;9.00;;;5.00;99.90;;;;;;5014598;28;20451;-56
2021/12/17 03:38:25;;;;;;;20.83;6.90;;;5.00;99.90;;;;;;5027759;28;20486;-56
2021/12/17 03:41:03;;;;;;;20.33;6.90;;;5.10;99.90;;;;;;5028672;28;21008;-57
2021/12/17 03:43:32;;;;;;;15.13;6.83;;;5.10;99.90;;;;;;5031640;28;20493;-56
2021/12/17 03:45:59;;;;;;;23.80;7.13;;;5.10;99.90;;;;;;5031463;28;20475;-58
2021/12/17 03:48:29;;;;;;;16.97;6.53;;;5.10;99.90;;;;;;5031279;28;20576;-57
2021/12/17 03:50:55;;;;;;;21.80;8.23;;;5.10;99.90;;;;;;5034003;28;20537;-56
2021/12/17 03:53:22;;;;;;;21.17;6.87;;;5.10;99.90;;;;;;5031745;28;20514;-56
2021/12/17 03:55:49;;;;;;;20.40;7.73;;;5.10;99.90;;;;;;5036629;28;20581;-56
2021/12/17 03:58:17;;;;;;;15.80;6.80;;;5.10;99.90;;;;;;5031556;28;20490;-56
2021/12/17 04:00:45;;;;;;;20.43;7.50;;;5.10;99.90;;;;;;5025754;28;20500;-57
2021/12/17 04:03:11;;;;;;;15.97;6.90;;;5.10;99.90;;;;;;5026290;28;20466;-57
2021/12/17 04:05:38;;;;;;;20.10;7.07;;;5.10;99.90;;;;;;5031701;28;20549;-56
2021/12/17 04:08:05;;;;;;;21.87;7.30;;;5.20;99.90;;;;;;5030181;28;20558;-56
2021/12/17 04:10:40;;;;;;;18.93;6.90;;;5.20;99.90;;;;;;5028841;28;20550;-56
2021/12/17 04:13:24;;;;;;;18.43;6.80;;;5.20;99.90;;;;;;5030734;28;20464;-56
2021/12/17 04:15:56;;;;;;;17.67;6.37;;;5.20;99.90;;;;;;5030576;28;20449;-57
2021/12/17 04:18:23;;;;;;;20.30;7.77;;;5.20;99.90;;;;;;5031167;28;20483;-56
2021/12/17 04:20:50;;;;;;;19.83;7.30;;;5.20;99.90;;;;;;5024993;28;21034;-58
2021/12/17 04:23:16;;;;;;;17.27;6.80;;;5.20;99.90;;;;;;5029353;28;20513;-57
2021/12/17 04:25:43;;;;;;;20.27;6.77;;;5.20;99.90;;;;;;5031019;28;20550;-56
2021/12/17 04:28:09;;;;;;;20.17;6.80;;;5.20;99.90;;;;;;5025069;28;20490;-56
2021/12/17 04:30:38;;;;;;;14.50;6.57;;;5.20;99.90;;;;;;5033444;28;20482;-56
2021/12/17 04:33:06;;;;;;;17.57;6.70;;;5.20;99.90;;;;;;5032368;28;20459;-56
2021/12/17 04:35:33;;;;;;;25.20;8.00;;;5.20;99.90;;;;;;5030983;28;20470;-56
2021/12/17 04:38:00;;;;;;;21.20;7.30;;;5.20;99.90;;;;;;5032835;28;20838;-56
2021/12/17 04:40:28;;;;;;;20.50;7.83;;;5.10;99.90;;;;;;5031651;28;20455;-56
2021/12/17 04:43:01;;;;;;;20.07;6.83;;;5.10;99.90;;;;;;5042761;28;20458;-58
2021/12/17 04:45:28;;;;;;;20.87;6.90;;;5.10;99.90;;;;;;5040264;28;20494;-57
2021/12/17 04:58:55;;;;;;;16.87;6.47;;;5.10;99.90;;;;;;5027810;28;20589;-58
2021/12/17 05:01:22;;;;;;;22.77;6.40;;;5.10;99.90;;;;;;5030212;28;20497;-58
2021/12/17 05:03:48;;;;;;;20.60;7.83;;;5.10;99.90;;;;;;5031110;28;20536;-56
2021/12/17 05:06:18;;;;;;;13.97;5.97;;;5.10;99.90;;;;;;5031556;28;20549;-56
2021/12/17 05:08:45;;;;;;;21.83;6.57;;;5.00;99.90;;;;;;5031195;28;20481;-57
2021/12/17 05:11:26;;;;;;;17.57;7.50;;;5.00;99.90;;;;;;5031773;28;20489;-56
2021/12/17 05:19:42;;;;;;;13.47;5.87;;;4.90;99.90;;;;;;5030160;28;20569;-56
2021/12/17 05:22:11;;;;;;;15.17;5.80;;;5.00;99.90;;;;;;5029175;28;20463;-55
2021/12/17 05:24:38;;;;;;;14.03;6.70;;;4.90;99.90;;;;;;5029665;28;20581;-55
2021/12/17 05:27:05;;;;;;;15.27;6.00;;;5.00;99.90;;;;;;5029618;28;20554;-54
2021/12/17 05:29:32;;;;;;;15.03;6.37;;;5.10;99.90;;;;;;5027131;28;20527;-55
2021/12/17 05:31:59;;;;;;;19.40;6.17;;;5.10;99.90;;;;;;5032350;28;20525;-56
2021/12/17 05:34:25;;;;;;;14.77;6.20;;;5.10;99.90;;;;;;5025594;28;20555;-57
2021/12/17 05:36:52;;;;;;;17.50;6.90;;;5.10;99.90;;;;;;5026989;28;20558;-57
2021/12/17 05:39:19;;;;;;;15.67;5.07;;;5.10;99.90;;;;;;5029633;28;20565;-57
2021/12/17 05:41:46;;;;;;;14.43;6.10;;;5.10;99.90;;;;;;5027421;28;20510;-57
2021/12/17 05:44:14;;;;;;;22.83;5.93;;;5.00;99.90;;;;;;5029071;28;20490;-56
2021/12/17 05:46:49;;;;;;;20.40;6.40;;;5.00;99.90;;;;;;5023372;28;20992;-56
2021/12/17 05:49:17;;;;;;;19.50;6.00;;;4.90;99.90;;;;;;5026650;28;21026;-57
2021/12/17 05:51:43;;;;;;;19.77;6.40;;;5.00;99.90;;;;;;5029575;28;20513;-56
2021/12/17 05:54:10;;;;;;;17.17;6.37;;;5.00;99.90;;;;;;5025160;28;20930;-57
2021/12/17 05:56:38;;;;;;;14.80;6.30;;;4.90;99.90;;;;;;5026502;28;20481;-56
2021/12/17 05:59:05;;;;;;;26.63;6.90;;;4.90;99.90;;;;;;5027389;28;20578;-56
2021/12/17 06:01:32;;;;;;;25.67;7.20;;;4.90;99.90;;;;;;5023900;28;20959;-57
2021/12/17 06:03:59;;;;;;;19.17;6.67;;;4.90;99.90;;;;;;5026736;28;20582;-56
2021/12/17 06:06:27;;;;;;;15.30;6.43;;;5.00;99.90;;;;;;5028005;28;20545;-56
2021/12/17 06:08:53;;;;;;;17.03;6.60;;;4.90;99.90;;;;;;5026238;28;21034;-57
2021/12/17 06:11:20;;;;;;;15.13;6.20;;;5.00;99.90;;;;;;5029218;28;20482;-56
2021/12/17 06:13:48;;;;;;;17.70;7.20;;;4.90;99.90;;;;;;5023957;28;20574;-57
2021/12/17 06:16:14;;;;;;;17.10;7.00;;;4.90;99.90;;;;;;5026679;28;21045;-57
2021/12/17 06:18:41;;;;;;;24.30;6.87;;;5.00;99.90;;;;;;5024855;28;20557;-58
2021/12/17 06:21:07;;;;;;;17.73;7.53;;;5.10;99.90;;;;;;5030186;28;20562;-57
2021/12/17 06:23:34;;;;;;;19.87;6.53;;;5.10;99.90;;;;;;5028551;28;20576;-56
2021/12/17 06:26:00;;;;;;;32.80;8.47;;;5.00;99.90;;;;;;5028896;28;20550;-57
2021/12/17 06:28:27;;;;;;;14.43;6.47;;;4.90;99.90;;;;;;5031092;28;20497;-57
2021/12/17 06:30:55;;;;;;;21.03;7.00;;;5.00;99.90;;;;;;5045560;28;20459;-57
2021/12/17 06:33:21;;;;;;;18.90;6.83;;;5.00;99.90;;;;;;5031663;28;20550;-56
2021/12/17 06:35:48;;;;;;;25.43;7.23;;;5.00;99.90;;;;;;5030133;28;20892;-56
2021/12/17 06:38:15;;;;;;;14.63;5.93;;;5.00;99.90;;;;;;5030420;28;20490;-56
2021/12/17 06:40:41;;;;;;;18.90;7.47;;;5.00;99.90;;;;;;5029532;28;20482;-57
2021/12/17 06:43:08;;;;;;;18.93;6.67;;;5.10;99.90;;;;;;5025525;28;20462;-57
2021/12/17 06:45:54;;;;;;;23.20;6.60;;;5.00;99.90;;;;;;5024711;28;20960;-56
2021/12/17 06:48:26;;;;;;;18.57;6.33;;;5.10;99.90;;;;;;5027561;28;20553;-55
2021/12/17 06:57:16;;;;;;;19.73;6.57;;;5.00;99.90;;;;;;5029187;28;20469;-57
2021/12/17 06:59:41;;;;;;;32.53;6.47;;;5.00;99.90;;;;;;5027964;28;20466;-57
2021/12/17 07:10:39;;;;;;;20.20;6.43;;;5.10;99.90;;;;;;5021655;28;20446;-57
2021/12/17 07:21:41;;;;;;;16.73;6.83;;;5.00;99.90;;;;;;5025633;28;20439;-57
2021/12/17 07:32:46;;;;;;;16.27;7.10;;;5.20;99.90;;;;;;5028806;28;20941;-57
2021/12/17 07:35:26;;;;;;;25.53;7.67;;;5.20;99.90;;;;;;5024848;28;20531;-57
2021/12/17 07:40:38;;;;;;;13.37;6.03;;;5.20;99.90;;;;;;5028808;28;20593;-57
2021/12/17 07:43:11;;;;;;;21.67;6.93;;;5.20;99.90;;;;;;5023655;28;20494;-57
2021/12/17 07:45:38;;;;;;;18.27;7.33;;;5.20;99.90;;;;;;5023378;28;20558;-58
2021/12/17 07:48:05;;;;;;;11.20;6.00;;;5.20;99.90;;;;;;5030121;28;20586;-57
2021/12/17 07:50:32;;;;;;;12.80;5.83;;;5.30;99.90;;;;;;5029962;28;20549;-58
2021/12/17 07:53:00;;;;;;;29.23;7.93;;;5.20;99.90;;;;;;5027210;28;20490;-57
2021/12/17 07:55:27;;;;;;;13.20;6.03;;;5.20;99.90;;;;;;5028845;28;20542;-58
2021/12/17 07:57:53;;;;;;;16.13;6.10;;;5.20;99.90;;;;;;5027449;28;20494;-57
2021/12/17 08:00:20;;;;;;;16.20;5.80;;;5.20;99.90;;;;;;5029246;28;20565;-57
2021/12/17 08:02:46;;;;;;;17.20;6.17;;;5.30;99.90;;;;;;5034675;28;20518;-57
2021/12/17 08:05:13;;;;;;;12.53;5.67;;;5.20;99.90;;;;;;5031940;28;21047;-57
2021/12/17 08:07:40;;;;;;;20.20;6.40;;;5.20;99.90;;;;;;5032526;28;20545;-56
2021/12/17 08:10:08;;;;;;;16.10;5.90;;;5.20;99.90;;;;;;5025918;28;20495;-56
2021/12/17 08:12:35;;;;;;;25.70;7.57;;;5.20;99.90;;;;;;5032345;28;20463;-60
2021/12/17 08:15:04;;;;;;;18.90;6.10;;;5.20;99.90;;;;;;5039673;28;20557;-57
2021/12/17 08:17:45;;;;;;;13.97;6.30;;;5.20;99.90;;;;;;5043624;28;20458;-56
2021/12/17 08:23:53;;;;;;;18.87;6.60;;;5.30;99.90;;;;;;5034117;28;20445;-56
2021/12/17 08:26:16;;;;;;;21.70;7.23;;;5.40;73.00;;;;;;5040502;28;20834;-56
2021/12/17 08:29:12;;;;;;;19.20;6.33;;;5.40;22.20;;;;;;5019404;28;20467;-56
2021/12/17 08:31:39;;;;;;;14.17;5.50;;;5.40;20.20;;;;;;5025117;28;20459;-56
2021/12/17 08:34:06;;;;;;;21.47;7.67;;;5.50;99.90;;;;;;5018447;28;20559;-55
2021/12/17 08:36:33;;;;;;;13.47;5.60;;;5.40;99.90;;;;;;5034675;28;20505;-56
2021/12/17 08:38:59;;;;;;;17.27;6.10;;;5.40;99.90;;;;;;5030799;28;20545;-57
2021/12/17 08:41:28;;;;;;;14.67;5.97;;;5.40;86.80;;;;;;5028445;28;20565;-56
2021/12/17 08:43:55;;;;;;;17.03;5.60;;;5.40;99.90;;;;;;5030076;28;20513;-57
2021/12/17 08:46:21;;;;;;;11.00;4.87;;;5.40;99.90;;;;;;5025126;28;20537;-55
2021/12/17 08:48:48;;;;;;;9.37;5.30;;;5.40;99.90;;;;;;5030508;28;20555;-56
2021/12/17 08:51:15;;;;;;;15.07;5.93;;;5.40;23.60;;;;;;5029625;28;20541;-56
2021/12/17 08:53:41;;;;;;;10.57;5.70;;;5.40;72.00;;;;;;5029208;28;20561;-55
2021/12/17 08:56:08;;;;;;;19.47;5.23;;;5.40;21.70;;;;;;5029511;28;20549;-56
2021/12/17 08:58:36;;;;;;;16.80;6.80;;;5.50;99.90;;;;;;5029545;28;20458;-55
2021/12/17 09:01:05;;;;;;;18.47;5.53;;;5.50;99.90;;;;;;5028769;28;20505;-55
2021/12/17 09:03:32;;;;;;;24.43;7.17;;;5.50;25.80;;;;;;5031541;28;20492;-57
2021/12/17 09:05:58;;;;;;;13.63;6.60;;;5.50;23.80;;;;;;5023484;28;20549;-55
2021/12/17 09:08:25;;;;;;;18.47;6.73;;;5.60;21.60;;;;;;5030632;28;20570;-56
2021/12/17 09:10:55;;;;;;;16.83;6.67;;;5.60;76.30;;;;;;5027569;28;20536;-56
2021/12/17 09:15:55;;;;;;;17.10;5.90;;;5.60;23.10;;;;;;5014744;28;20476;-52
2021/12/17 09:18:22;;;;;;;16.80;6.13;;;5.60;80.80;;;;;;5027699;28;20486;-52
2021/12/17 09:20:49;;;;;;;14.93;6.10;;;5.60;24.70;;;;;;5025798;28;20563;-52
2021/12/17 09:23:16;;;;;;;14.00;6.30;;;5.70;29.90;;;;;;5029005;28;20463;-52
2021/12/17 09:25:43;;;;;;;21.40;5.43;;;5.70;38.30;;;;;;5020103;28;20537;-52
2021/12/17 09:28:10;;;;;;;15.87;5.50;;;5.60;34.00;;;;;;5022600;28;20540;-51
2021/12/17 09:30:37;;;;;;;13.80;5.63;;;5.60;34.40;;;;;;5022437;28;20456;-53
2021/12/17 09:33:05;;;;;;;13.97;6.40;;;5.70;29.60;;;;;;5026111;28;20446;-52
2021/12/17 09:35:32;;;;;;;19.23;6.03;;;5.60;36.00;;;;;;5026581;28;20861;-52
2021/12/17 09:37:59;;;;;;;13.03;5.67;;;5.60;30.30;;;;;;5027044;28;21004;-52
2021/12/17 09:40:25;;;;;;;27.53;5.90;;;5.60;27.40;;;;;;5025712;28;20514;-52
2021/12/17 09:42:52;;;;;;;13.13;5.53;;;5.60;21.60;;;;;;5017936;28;20981;-53
2021/12/17 09:45:19;;;;;;;15.23;5.83;;;5.60;20.40;;;;;;5019241;28;20526;-52
2021/12/17 09:47:47;;;;;;;13.40;5.27;;;5.60;99.90;;;;;;5026602;28;20541;-53
2021/12/17 09:50:18;;;;;;;11.63;4.33;;;5.60;91.70;;;;;;5027433;28;20873;-52
2021/12/17 09:52:44;;;;;;;21.00;5.87;;;5.70;22.80;;;;;;5022635;28;20907;-52
2021/12/17 09:55:11;;;;;;;15.87;5.20;;;5.60;31.20;;;;;;5026996;28;20532;-51
2021/12/17 09:57:38;;;;;;;12.17;5.40;;;5.70;22.50;;;;;;5026420;28;20549;-52
2021/12/17 10:00:07;;;;;;;16.13;5.40;;;5.70;21.40;;;;;;5017673;28;20482;-52
2021/12/17 10:02:34;;;;;;;12.27;5.30;;;5.70;40.60;;;;;;5024067;28;20547;-52
2021/12/17 10:05:00;;;;;;;10.20;4.50;;;5.70;32.20;;;;;;5021484;28;20514;-52
2021/12/17 10:07:30;;;;;;;11.93;6.63;;;5.70;30.40;;;;;;5021915;28;20486;-57
2021/12/17 10:09:58;;;;;;;9.53;5.23;;;5.70;38.30;;;;;;5020286;28;20483;-48
2021/12/17 10:12:27;;;;;;;10.10;4.80;;;5.80;38.60;;;;;;5027336;28;20550;-51
2021/12/17 10:15:07;;;;;;;11.83;5.00;;;5.80;45.70;;;;;;5027946;28;20479;-51
2021/12/17 10:17:35;;;;;;;14.90;5.03;;;5.70;63.60;;;;;;5021802;28;20948;-57
2021/12/17 10:20:04;;;;;;;11.10;5.70;;;5.80;60.60;;;;;;5020969;28;20574;-58
2021/12/17 10:22:32;;;;;;;10.20;4.70;;;5.70;48.60;;;;;;5022523;28;20908;-56
2021/12/17 10:25:03;;;;;;;9.33;4.70;;;5.80;47.90;;;;;;5023268;28;21019;-57
2021/12/17 10:27:32;;;;;;;8.07;4.70;;;5.80;65.50;;;;;;5023196;28;20466;-57
2021/12/17 10:29:59;;;;;;;14.53;6.07;;;5.80;74.50;;;;;;5022652;28;20577;-58
2021/12/17 10:32:28;;;;;;;7.93;4.90;;;5.90;76.70;;;;;;5032947;28;20478;-57
2021/12/17 10:35:03;;;;;;;14.50;5.17;;;5.80;69.50;;;;;;5034063;28;20474;-56
2021/12/17 10:37:37;;;;;;;8.67;4.50;;;5.90;69.40;;;;;;5030727;28;21129;-57
2021/12/17 10:40:20;;;;;;;11.03;5.03;;;5.90;74.20;;;;;;5028202;28;20482;-57
2021/12/17 10:42:59;;;;;;;15.43;4.47;;;5.90;85.10;;;;;;5030095;28;20513;-57
2021/12/17 10:45:28;;;;;;;11.07;5.47;;;5.90;90.70;;;;;;5033373;28;20518;-57
2021/12/17 10:48:22;;;;;;;17.73;5.30;;;5.90;88.90;;;;;;5028460;28;20458;-56
2021/12/17 10:50:49;;;;;;;10.00;4.60;;;5.90;84.00;;;;;;5033102;28;20858;-56
2021/12/17 10:53:22;;;;;;;10.47;4.37;;;5.90;99.90;;;;;;5034689;28;20530;-57
2021/12/17 10:55:49;;;;;;;10.97;4.83;;;5.90;99.90;;;;;;5032915;28;20487;-57
2021/12/17 10:58:16;;;;;;;17.90;4.23;;;6.00;93.80;;;;;;5030219;28;20447;-56
2021/12/17 11:00:47;;;;;;;13.53;5.40;;;6.10;95.00;;;;;;5022156;28;21212;-56
2021/12/17 11:03:14;;;;;;;9.77;4.67;;;6.00;99.90;;;;;;5034746;28;21299;-57
2021/12/17 11:05:41;;;;;;;10.80;4.90;;;6.00;99.90;;;;;;5026572;28;20467;-56
2021/12/17 11:08:24;;;;;;;8.60;4.87;;;6.00;99.90;;;;;;5022398;28;20988;-58
2021/12/17 11:10:57;;;;;;;14.60;4.70;;;6.00;99.90;;;;;;5035043;28;20466;-57
2021/12/17 11:13:23;;;;;;;10.20;4.83;;;6.00;99.90;;;;;;5018970;28;21026;-57
2021/12/17 11:15:51;;;;;;;12.40;5.20;;;6.00;99.90;;;;;;5032693;28;21051;-57
2021/12/17 11:18:18;;;;;;;23.53;5.27;;;6.00;99.90;;;;;;5030442;28;20534;-56
2021/12/17 11:20:46;;;;;;;9.63;4.70;;;6.10;99.90;;;;;;5029154;28;20489;-47
2021/12/17 11:23:15;;;;;;;17.80;5.43;;;6.10;99.90;;;;;;5034468;28;20534;-52
2021/12/17 11:25:44;;;;;;;15.10;4.47;;;6.20;99.90;;;;;;5030450;28;20471;-47
2021/12/17 11:28:12;;;;;;;13.07;5.33;;;6.20;99.90;;;;;;5028457;28;20455;-46
2021/12/17 11:30:41;;;;;;;18.07;5.30;;;6.30;99.90;;;;;;5028778;28;21019;-48
2021/12/17 11:33:08;;;;;;;15.53;4.63;;;6.30;99.90;;;;;;5032012;28;20454;-52
2021/12/17 11:35:37;;;;;;;13.33;4.20;;;6.30;99.90;;;;;;5034370;28;20502;-52
2021/12/17 11:38:06;;;;;;;10.63;5.13;;;6.20;99.90;;;;;;5033995;28;21014;-52
2021/12/17 11:40:41;;;;;;;15.80;5.07;;;6.30;99.90;;;;;;5033271;28;20502;-53
2021/12/17 11:43:28;;;;;;;11.90;3.93;;;6.30;99.90;;;;;;5032514;28;20465;-53
2021/12/17 11:46:00;;;;;;;8.00;3.60;;;6.20;99.90;;;;;;5029489;28;20538;-52
2021/12/17 11:48:27;;;;;;;11.33;3.60;;;6.30;99.90;;;;;;5025230;28;20535;-52
2021/12/17 11:51:05;;;;;;;9.10;4.57;;;6.30;99.90;;;;;;5016960;28;20446;-51
2021/12/17 11:53:33;;;;;;;9.10;4.53;;;6.30;99.90;;;;;;5024117;28;20542;-52
2021/12/17 11:56:01;;;;;;;12.53;5.50;;;6.30;99.90;;;;;;5022474;28;20971;-52
2021/12/17 11:58:50;;;;;;;11.87;4.33;;;6.20;99.90;;;;;;5029804;28;20458;-52
2021/12/17 12:01:49;;;;;;;8.10;3.53;;;6.30;99.90;;;;;;5026270;28;20475;-52
2021/12/17 12:04:37;;;;;;;8.70;3.63;;;6.30;99.90;;;;;;5034161;28;20474;-52
2021/12/17 12:07:06;;;;;;;9.90;3.50;;;6.30;99.90;;;;;;5026447;28;20553;-51
2021/12/17 12:09:56;;;;;;;12.33;4.97;;;6.40;99.90;;;;;;5024251;28;20858;-52
2021/12/17 12:12:24;;;;;;;10.70;3.83;;;6.30;99.90;;;;;;5029548;28;20500;-51
2021/12/17 12:14:53;;;;;;;11.07;4.20;;;6.30;99.90;;;;;;5021806;28;20580;-52
2021/12/17 12:18:08;;;;;;;10.70;7.30;;;6.30;99.90;;;;;;5027116;28;20554;-52
2021/12/17 12:20:40;;;;;;;7.83;4.70;;;6.30;99.90;;;;;;4947647;29;20478;-52
2021/12/17 12:23:18;;;;;;;15.13;4.60;;;6.30;99.90;;;;;;5012155;28;20542;-51
2021/12/17 12:25:47;;;;;;;10.43;6.93;;;6.30;99.90;;;;;;5031702;28;20605;-52
2021/12/17 12:28:15;;;;;;;11.30;5.60;;;6.40;99.90;;;;;;5024227;28;20492;-51
2021/12/17 12:30:45;;;;;;;13.60;4.60;;;6.40;99.90;;;;;;5024325;28;20478;-51
2021/12/17 12:33:14;;;;;;;16.30;4.80;;;6.40;99.90;;;;;;5028246;28;20454;-52
2021/12/17 12:35:56;;;;;;;11.20;4.33;;;6.40;99.90;;;;;;5023937;28;20603;-52
2021/12/17 12:38:30;;;;;;;8.27;3.60;;;6.40;99.90;;;;;;5028409;28;20447;-52
2021/12/17 12:40:58;;;;;;;8.77;3.37;;;6.30;99.90;;;;;;5031119;28;20491;-52
2021/12/17 12:43:27;;;;;;;13.87;4.47;;;6.30;99.90;;;;;;5028647;28;21016;-52
2021/12/17 12:45:56;;;;;;;10.50;4.80;;;6.30;99.90;;;;;;5030409;28;20494;-52
2021/12/17 12:48:31;;;;;;;12.30;4.23;;;6.20;99.90;;;;;;5026769;28;20494;-52
2021/12/17 12:51:16;;;;;;;8.13;3.97;;;6.30;99.90;;;;;;5030800;28;21146;-51
2021/12/17 12:53:47;;;;;;;11.93;3.90;;;6.30;99.90;;;;;;5033081;28;20467;-51
2021/12/17 12:56:18;;;;;;;10.07;3.60;;;6.20;99.90;;;;;;5031426;28;20526;-47
2021/12/17 12:58:50;;;;;;;10.00;4.20;;;6.20;99.90;;;;;;5031179;28;20585;-47
2021/12/17 13:01:20;;;;;;;15.73;5.23;;;6.20;99.90;;;;;;5031374;28;20483;-47
2021/12/17 13:03:46;;;;;;;9.33;3.93;;;6.30;1.40;;;;;;5021076;28;21819;-47
2021/12/17 13:06:17;;;;;;;8.70;4.13;;;6.30;99.90;;;;;;5025065;28;20517;-48
2021/12/17 13:08:52;;;;;;;11.27;4.10;;;6.30;1.40;;;;;;5024096;28;20908;-46
2021/12/17 13:11:19;;;;;;;9.43;3.90;;;6.30;99.90;;;;;;5021695;28;20458;-46
2021/12/17 13:13:52;;;;;;;7.37;3.40;;;6.30;99.90;;;;;;5025108;28;21302;-48
2021/12/17 13:16:34;;;;;;;13.40;3.70;;;6.30;99.90;;;;;;5027274;28;20494;-48
2021/12/17 13:21:58;;;;;;;10.90;4.10;;;6.30;99.90;;;;;;5025864;28;21125;-47
2021/12/17 13:24:27;;;;;;;6.83;3.40;;;6.30;99.90;;;;;;5019558;28;20478;-47
2021/12/17 13:26:57;;;;;;;16.57;3.87;;;6.30;99.90;;;;;;5019035;28;20554;-48
2021/12/17 13:29:25;;;;;;;8.53;3.83;;;6.30;99.90;;;;;;5024135;28;20549;-47
2021/12/17 13:31:56;;;;;;;11.93;3.60;;;6.30;99.90;;;;;;5024038;28;20550;-48
2021/12/17 13:34:26;;;;;;;7.80;3.13;;;6.40;99.90;;;;;;5020288;28;20486;-48
2021/12/17 13:36:56;;;;;;;7.23;2.73;;;6.40;99.90;;;;;;5025407;28;21031;-48
2021/12/17 13:39:26;;;;;;;3.87;2.80;;;6.30;99.90;;;;;;5016374;28;20565;-47
2021/12/17 13:41:52;;;;;;;8.03;3.20;;;6.30;99.90;;;;;;5021922;28;20479;-48
2021/12/17 13:44:35;;;;;;;5.13;2.70;;;6.40;99.90;;;;;;5020769;28;20573;-47
2021/12/17 13:47:16;;;;;;;6.70;2.70;;;6.40;99.90;;;;;;5025095;28;20501;-47
2021/12/17 13:49:45;;;;;;;8.80;2.40;;;6.30;99.90;;;;;;5023574;28;20507;-47
2021/12/17 13:52:13;;;;;;;10.10;3.30;;;6.30;99.90;;;;;;5028265;28;20471;-57
2021/12/17 13:54:40;;;;;;;11.77;3.43;;;6.30;99.90;;;;;;5024352;28;20577;-53
2021/12/17 13:57:11;;;;;;;8.30;2.93;;;6.30;99.90;;;;;;5024710;28;20572;-52
2021/12/17 13:59:39;;;;;;;10.37;2.73;;;6.30;99.90;;;;;;5022128;28;20456;-51
2021/12/17 14:02:15;;;;;;;8.80;3.40;;;6.30;99.90;;;;;;5020582;28;20574;-52
2021/12/17 14:04:44;;;;;;;10.70;3.80;;;6.20;99.90;;;;;;5022378;28;21210;-53
2021/12/17 14:07:12;;;;;;;12.70;3.17;;;6.20;99.90;;;;;;5030557;28;20924;-51
2021/12/17 14:09:38;;;;;;;5.83;2.60;;;6.20;99.90;;;;;;5031023;28;20458;-50
2021/12/17 14:12:25;;;;;;;5.17;3.10;;;6.30;99.90;;;;;;5029529;28;20884;-57
2021/12/17 14:14:58;;;;;;;7.47;3.30;;;6.30;99.90;;;;;;5029388;28;20540;-51
2021/12/17 14:17:32;;;;;;;7.27;2.80;;;6.20;99.90;;;;;;5031867;28;20442;-50
2021/12/17 14:20:06;;;;;;;6.50;2.20;;;6.20;99.90;;;;;;5031990;28;20438;-51
2021/12/17 14:22:35;;;;;;;6.63;3.00;;;6.20;99.90;;;;;;5031568;28;20916;-50
2021/12/17 14:25:26;;;;;;;8.10;3.70;;;6.20;99.90;;;;;;5030936;28;20470;-51
2021/12/17 14:27:53;;;;;;;7.17;3.30;;;6.20;99.90;;;;;;5031062;28;20604;-51
2021/12/17 14:30:24;;;;;;;8.90;4.03;;;6.20;99.90;;;;;;5031606;28;20538;-50
2021/12/17 14:32:51;;;;;;;5.00;3.00;;;6.20;99.90;;;;;;5031634;28;20435;-51
2021/12/17 14:35:40;;;;;;;8.87;3.10;;;6.20;99.90;;;;;;5030525;28;20515;-51
2021/12/17 14:38:07;;;;;;;10.17;3.80;;;6.20;99.90;;;;;;5031624;28;20529;-52
2021/12/17 14:40:41;;;;;;;6.73;2.87;;;6.10;99.90;;;;;;5031341;28;20529;-52
2021/12/17 14:43:19;;;;;;;5.90;3.23;;;6.20;99.90;;;;;;5011837;28;20483;-50
2021/12/17 14:45:54;;;;;;;6.87;3.20;;;6.10;99.90;;;;;;5024913;28;20858;-51
2021/12/17 14:48:31;;;;;;;11.30;3.10;;;6.10;99.90;;;;;;5031435;28;20446;-51
2021/12/17 15:02:26;;;;;;;5.65;2.28;;;6.10;99.90;;;;;;5030435;28;20484;-53
2021/12/17 15:04:52;;;;;;;4.83;2.40;;;6.10;99.90;;;;;;5031198;28;20700;-52
2021/12/17 15:07:23;;;;;;;6.60;2.53;;;6.00;99.90;;;;;;5031523;28;20443;-52
2021/12/17 15:09:49;;;;;;;8.10;3.23;;;6.10;99.90;;;;;;5031201;28;20454;-53
2021/12/17 15:12:37;;;;;;;8.27;3.03;;;6.00;99.90;;;;;;5030260;28;20543;-52
2021/12/17 15:15:06;;;;;;;14.83;3.83;;;6.00;99.90;;;;;;5031218;28;20918;-51
2021/12/17 15:17:33;;;;;;;7.07;3.03;;;6.00;99.90;;;;;;5015828;28;20543;-52